sensor_id;sensor_type;location;lat;lon;timestamp;pressure;altitude;pressure_sealevel;temperature;humidity
36630;BME280;36256;42.154;23.002;2023-02-23T00:01:45;97075.59;;;4.04;94.22
36630;BME280;36256;42.154;23.002;2023-02-23T00:04:12;97074.53;;;3.94;93.77
36630;BME280;36256;42.154;23.002;2023-02-23T00:06:38;97076.59;;;3.87;93.65
36630;BME280;36256;42.154;23.002;2023-02-23T00:09:05;97076.94;;;3.92;93.72
36630;BME280;36256;42.154;23.002;2023-02-23T00:11:37;97071.78;;;3.91;93.09
36630;BME280;36256;42.154;23.002;2023-02-23T00:14:03;97079.00;;;3.85;93.43
36630;BME280;36256;42.154;23.002;2023-02-23T00:16:31;97076.16;;;3.92;92.68
36630;BME280;36256;42.154;23.002;2023-02-23T00:18:58;97072.34;;;3.79;95.23
36630;BME280;36256;42.154;23.002;2023-02-23T00:21:29;97071.19;;;3.76;96.60
36630;BME280;36256;42.154;23.002;2023-02-23T00:24:20;97071.06;;;3.87;95.49
36630;BME280;36256;42.154;23.002;2023-02-23T00:26:48;97077.41;;;3.87;94.74
36630;BME280;36256;42.154;23.002;2023-02-23T00:29:19;97081.66;;;3.95;94.00
36630;BME280;36256;42.154;23.002;2023-02-23T00:31:47;97079.97;;;4.05;92.37
36630;BME280;36256;42.154;23.002;2023-02-23T00:34:15;97084.63;;;4.12;92.00
36630;BME280;36256;42.154;23.002;2023-02-23T00:36:49;97083.34;;;4.20;92.03
36630;BME280;36256;42.154;23.002;2023-02-23T00:39:16;97084.75;;;4.31;91.71
36630;BME280;36256;42.154;23.002;2023-02-23T00:41:48;97089.53;;;4.31;90.48
36630;BME280;36256;42.154;23.002;2023-02-23T00:44:15;97088.53;;;4.14;94.87
36630;BME280;36256;42.154;23.002;2023-02-23T00:46:43;97086.63;;;4.11;96.14
36630;BME280;36256;42.154;23.002;2023-02-23T00:49:11;97089.97;;;3.95;96.57
36630;BME280;36256;42.154;23.002;2023-02-23T00:51:38;97083.88;;;4.08;95.67
36630;BME280;36256;42.154;23.002;2023-02-23T00:54:05;97076.16;;;3.92;96.89
36630;BME280;36256;42.154;23.002;2023-02-23T00:56:32;97084.78;;;4.01;97.81
36630;BME280;36256;42.154;23.002;2023-02-23T00:58:59;97086.25;;;4.09;96.84
36630;BME280;36256;42.154;23.002;2023-02-23T01:01:26;97079.69;;;4.26;93.08
36630;BME280;36256;42.154;23.002;2023-02-23T01:03:53;97079.16;;;4.35;92.14
36630;BME280;36256;42.154;23.002;2023-02-23T01:06:20;97088.16;;;4.42;91.78
36630;BME280;36256;42.154;23.002;2023-02-23T01:08:49;97096.34;;;4.53;91.03
36630;BME280;36256;42.154;23.002;2023-02-23T01:11:19;97091.22;;;4.51;90.61
36630;BME280;36256;42.154;23.002;2023-02-23T01:13:48;97086.13;;;4.46;93.87
36630;BME280;36256;42.154;23.002;2023-02-23T01:16:17;97089.84;;;4.36;93.73
36630;BME280;36256;42.154;23.002;2023-02-23T01:18:45;97088.75;;;4.30;94.85
36630;BME280;36256;42.154;23.002;2023-02-23T01:21:17;97090.56;;;4.14;94.79
36630;BME280;36256;42.154;23.002;2023-02-23T01:23:45;97084.56;;;4.15;94.20
36630;BME280;36256;42.154;23.002;2023-02-23T01:26:29;97089.97;;;3.99;94.72
36630;BME280;36256;42.154;23.002;2023-02-23T01:28:58;97086.16;;;3.86;96.06
36630;BME280;36256;42.154;23.002;2023-02-23T01:31:27;97084.44;;;3.62;96.09
36630;BME280;36256;42.154;23.002;2023-02-23T01:33:56;97087.69;;;3.53;96.70
36630;BME280;36256;42.154;23.002;2023-02-23T01:36:23;97068.78;;;3.45;96.52
36630;BME280;36256;42.154;23.002;2023-02-23T01:38:51;97057.78;;;3.34;97.74
36630;BME280;36256;42.154;23.002;2023-02-23T01:41:23;97076.72;;;3.43;97.74
36630;BME280;36256;42.154;23.002;2023-02-23T01:46:45;97083.06;;;3.43;96.48
36630;BME280;36256;42.154;23.002;2023-02-23T01:49:20;97074.91;;;3.29;96.98
36630;BME280;36256;42.154;23.002;2023-02-23T01:51:52;97076.88;;;3.29;96.86
36630;BME280;36256;42.154;23.002;2023-02-23T01:54:24;97062.72;;;3.19;97.07
36630;BME280;36256;42.154;23.002;2023-02-23T01:56:55;97081.09;;;3.44;96.05
36630;BME280;36256;42.154;23.002;2023-02-23T01:59:28;97081.03;;;3.47;94.93
36630;BME280;36256;42.154;23.002;2023-02-23T02:02:00;97077.84;;;3.49;93.75
36630;BME280;36256;42.154;23.002;2023-02-23T02:04:33;97059.34;;;3.39;93.58
36630;BME280;36256;42.154;23.002;2023-02-23T02:07:11;97072.66;;;3.54;93.06
36630;BME280;36256;42.154;23.002;2023-02-23T02:09:43;97073.88;;;3.50;95.17
36630;BME280;36256;42.154;23.002;2023-02-23T02:12:30;97069.69;;;3.35;96.23
36630;BME280;36256;42.154;23.002;2023-02-23T02:14:58;97072.91;;;3.30;95.99
36630;BME280;36256;42.154;23.002;2023-02-23T02:39:45;97076.34;;;3.03;98.94
36630;BME280;36256;42.154;23.002;2023-02-23T02:45:20;97069.31;;;2.92;98.07
36630;BME280;36256;42.154;23.002;2023-02-23T02:56:17;97067.09;;;2.73;100.00
36630;BME280;36256;42.154;23.002;2023-02-23T02:58:46;97067.47;;;2.78;100.00
36630;BME280;36256;42.154;23.002;2023-02-23T03:01:17;97069.00;;;2.79;100.00
36630;BME280;36256;42.154;23.002;2023-02-23T03:04:20;97067.00;;;2.83;100.00
36630;BME280;36256;42.154;23.002;2023-02-23T03:14:22;97069.25;;;2.99;99.43
36630;BME280;36256;42.154;23.002;2023-02-23T03:25:59;97055.16;;;2.79;97.38
36630;BME280;36256;42.154;23.002;2023-02-23T03:29:03;97079.53;;;3.02;98.60
36630;BME280;36256;42.154;23.002;2023-02-23T03:35:28;97088.56;;;3.09;97.92
36630;BME280;36256;42.154;23.002;2023-02-23T03:38:18;97090.63;;;3.02;97.15
36630;BME280;36256;42.154;23.002;2023-02-23T03:41:07;97093.06;;;2.89;97.75
36630;BME280;36256;42.154;23.002;2023-02-23T03:44:01;97095.91;;;2.82;99.46
36630;BME280;36256;42.154;23.002;2023-02-23T03:46:48;97087.66;;;2.75;98.57
36630;BME280;36256;42.154;23.002;2023-02-23T03:49:37;97091.28;;;2.65;97.28
36630;BME280;36256;42.154;23.002;2023-02-23T03:52:35;97092.50;;;2.61;96.92
36630;BME280;36256;42.154;23.002;2023-02-23T03:55:27;97099.75;;;2.44;98.43
36630;BME280;36256;42.154;23.002;2023-02-23T03:58:22;97097.81;;;2.37;99.81
36630;BME280;36256;42.154;23.002;2023-02-23T04:01:10;97079.31;;;2.24;100.00
36630;BME280;36256;42.154;23.002;2023-02-23T04:03:57;97102.94;;;2.39;99.58
36630;BME280;36256;42.154;23.002;2023-02-23T04:06:44;97108.47;;;2.43;100.00
36630;BME280;36256;42.154;23.002;2023-02-23T04:09:31;97105.31;;;2.37;100.00
36630;BME280;36256;42.154;23.002;2023-02-23T04:15:24;97111.19;;;2.50;100.00
36630;BME280;36256;42.154;23.002;2023-02-23T04:17:52;97107.19;;;2.54;100.00
36630;BME280;36256;42.154;23.002;2023-02-23T04:20:20;97109.97;;;2.54;100.00
36630;BME280;36256;42.154;23.002;2023-02-23T04:22:47;97114.66;;;2.61;100.00
36630;BME280;36256;42.154;23.002;2023-02-23T04:25:14;97114.56;;;2.78;100.00
36630;BME280;36256;42.154;23.002;2023-02-23T04:27:42;97116.03;;;2.90;99.98
36630;BME280;36256;42.154;23.002;2023-02-23T04:30:10;97119.25;;;2.81;100.00
36630;BME280;36256;42.154;23.002;2023-02-23T04:32:37;97111.38;;;2.80;100.00
36630;BME280;36256;42.154;23.002;2023-02-23T04:35:04;97111.38;;;2.80;100.00
36630;BME280;36256;42.154;23.002;2023-02-23T04:37:31;97098.59;;;2.89;98.15
36630;BME280;36256;42.154;23.002;2023-02-23T04:39:58;97107.25;;;2.98;96.09
36630;BME280;36256;42.154;23.002;2023-02-23T04:42:25;97114.75;;;3.01;97.27
36630;BME280;36256;42.154;23.002;2023-02-23T04:44:52;97108.94;;;2.89;98.83
36630;BME280;36256;42.154;23.002;2023-02-23T04:47:18;97112.50;;;2.86;99.43
36630;BME280;36256;42.154;23.002;2023-02-23T04:49:45;97119.25;;;2.81;99.06
36630;BME280;36256;42.154;23.002;2023-02-23T04:52:12;97112.25;;;2.66;99.89
36630;BME280;36256;42.154;23.002;2023-02-23T04:54:39;97117.84;;;2.59;100.00
36630;BME280;36256;42.154;23.002;2023-02-23T04:57:06;97113.94;;;2.53;99.65
36630;BME280;36256;42.154;23.002;2023-02-23T04:59:33;97119.53;;;2.46;98.97
36630;BME280;36256;42.154;23.002;2023-02-23T05:01:59;97098.22;;;2.36;98.58
36630;BME280;36256;42.154;23.002;2023-02-23T05:04:26;97118.41;;;2.36;100.00
36630;BME280;36256;42.154;23.002;2023-02-23T05:06:53;97112.81;;;2.47;99.89
36630;BME280;36256;42.154;23.002;2023-02-23T05:09:19;97104.50;;;2.44;99.52
36630;BME280;36256;42.154;23.002;2023-02-23T05:11:46;97118.28;;;2.58;98.60
36630;BME280;36256;42.154;23.002;2023-02-23T05:14:12;97116.34;;;2.51;98.20
36630;BME280;36256;42.154;23.002;2023-02-23T05:16:39;97124.56;;;2.58;99.02
36630;BME280;36256;42.154;23.002;2023-02-23T05:19:06;97129.34;;;2.58;99.71
36630;BME280;36256;42.154;23.002;2023-02-23T05:21:33;97133.34;;;2.50;100.00
36630;BME280;36256;42.154;23.002;2023-02-23T05:23:59;97141.66;;;2.50;100.00
36630;BME280;36256;42.154;23.002;2023-02-23T05:26:26;97144.78;;;2.52;100.00
36630;BME280;36256;42.154;23.002;2023-02-23T05:28:53;97140.44;;;2.58;100.00
36630;BME280;36256;42.154;23.002;2023-02-23T05:31:22;97147.47;;;2.69;100.00
36630;BME280;36256;42.154;23.002;2023-02-23T05:33:49;97151.00;;;2.73;99.92
36630;BME280;36256;42.154;23.002;2023-02-23T05:36:17;97158.84;;;2.82;98.38
36630;BME280;36256;42.154;23.002;2023-02-23T05:38:45;97157.72;;;2.76;98.58
36630;BME280;36256;42.154;23.002;2023-02-23T05:41:15;97162.50;;;2.72;98.04
36630;BME280;36256;42.154;23.002;2023-02-23T05:43:41;97155.78;;;2.69;97.50
36630;BME280;36256;42.154;23.002;2023-02-23T05:46:16;97149.88;;;2.60;97.72
36630;BME280;36256;42.154;23.002;2023-02-23T05:48:43;97170.81;;;2.72;97.52
36630;BME280;36256;42.154;23.002;2023-02-23T05:51:12;97171.59;;;2.69;98.67
36630;BME280;36256;42.154;23.002;2023-02-23T05:53:39;97179.56;;;2.63;99.33
36630;BME280;36256;42.154;23.002;2023-02-23T05:56:09;97176.44;;;2.58;99.67
36630;BME280;36256;42.154;23.002;2023-02-23T05:58:37;97183.19;;;2.53;100.00
36630;BME280;36256;42.154;23.002;2023-02-23T06:01:03;97181.22;;;2.50;100.00
36630;BME280;36256;42.154;23.002;2023-02-23T06:03:30;97186.72;;;2.57;99.78
36630;BME280;36256;42.154;23.002;2023-02-23T06:05:57;97171.75;;;2.44;99.64
36630;BME280;36256;42.154;23.002;2023-02-23T06:08:24;97181.22;;;2.50;99.95
36630;BME280;36256;42.154;23.002;2023-02-23T06:10:52;97186.75;;;2.50;100.00
36630;BME280;36256;42.154;23.002;2023-02-23T06:13:18;97197.78;;;2.61;100.00
36630;BME280;36256;42.154;23.002;2023-02-23T06:15:47;97177.19;;;2.58;100.00
36630;BME280;36256;42.154;23.002;2023-02-23T06:18:15;97201.53;;;2.95;99.26
36630;BME280;36256;42.154;23.002;2023-02-23T06:20:44;97178.34;;;3.23;97.24
36630;BME280;36256;42.154;23.002;2023-02-23T06:23:11;97198.28;;;3.55;95.60
36630;BME280;36256;42.154;23.002;2023-02-23T06:25:38;97203.50;;;3.86;94.33
36630;BME280;36256;42.154;23.002;2023-02-23T06:28:06;97190.03;;;4.22;92.51
36630;BME280;36256;42.154;23.002;2023-02-23T06:30:35;97200.59;;;4.64;89.78
36630;BME280;36256;42.154;23.002;2023-02-23T06:33:02;97200.00;;;5.07;87.12
36630;BME280;36256;42.154;23.002;2023-02-23T06:35:29;97197.13;;;5.37;85.22
36630;BME280;36256;42.154;23.002;2023-02-23T06:37:55;97196.09;;;5.50;83.63
36630;BME280;36256;42.154;23.002;2023-02-23T06:40:22;97190.91;;;5.76;82.63
36630;BME280;36256;42.154;23.002;2023-02-23T06:42:49;97195.66;;;5.75;82.69
36630;BME280;36256;42.154;23.002;2023-02-23T06:45:16;97193.47;;;6.09;82.33
36630;BME280;36256;42.154;23.002;2023-02-23T06:47:45;97190.28;;;6.50;78.59
36630;BME280;36256;42.154;23.002;2023-02-23T06:50:13;97188.38;;;6.63;77.34
36630;BME280;36256;42.154;23.002;2023-02-23T06:52:40;97178.25;;;6.89;76.91
36630;BME280;36256;42.154;23.002;2023-02-23T06:55:08;97181.31;;;7.30;74.95
36630;BME280;36256;42.154;23.002;2023-02-23T06:57:34;97179.91;;;7.22;75.29
36630;BME280;36256;42.154;23.002;2023-02-23T07:00:02;97191.50;;;7.37;75.98
36630;BME280;36256;42.154;23.002;2023-02-23T07:02:29;97186.72;;;7.53;75.37
36630;BME280;36256;42.154;23.002;2023-02-23T07:04:55;97187.72;;;7.75;73.44
36630;BME280;36256;42.154;23.002;2023-02-23T07:07:22;97178.78;;;7.97;71.75
36630;BME280;36256;42.154;23.002;2023-02-23T07:09:48;97176.84;;;8.10;71.45
36630;BME280;36256;42.154;23.002;2023-02-23T07:12:15;97173.84;;;8.33;70.35
36630;BME280;36256;42.154;23.002;2023-02-23T07:14:42;97177.03;;;8.60;69.68
36630;BME280;36256;42.154;23.002;2023-02-23T07:17:09;97171.28;;;8.92;67.92
36630;BME280;36256;42.154;23.002;2023-02-23T07:19:38;97172.94;;;8.77;67.32
36630;BME280;36256;42.154;23.002;2023-02-23T07:22:04;97142.81;;;8.56;69.44
36630;BME280;36256;42.154;23.002;2023-02-23T07:24:31;97165.56;;;8.83;68.86
36630;BME280;36256;42.154;23.002;2023-02-23T07:26:57;97163.03;;;9.26;67.12
36630;BME280;36256;42.154;23.002;2023-02-23T07:29:24;97156.13;;;9.65;65.04
36630;BME280;36256;42.154;23.002;2023-02-23T07:31:53;97144.75;;;9.94;63.99
36630;BME280;36256;42.154;23.002;2023-02-23T07:34:20;97131.69;;;9.66;65.37
36630;BME280;36256;42.154;23.002;2023-02-23T07:36:47;97140.88;;;10.13;64.29
36630;BME280;36256;42.154;23.002;2023-02-23T07:39:14;97142.41;;;10.48;62.37
36630;BME280;36256;42.154;23.002;2023-02-23T07:41:40;97138.78;;;10.69;61.88
36630;BME280;36256;42.154;23.002;2023-02-23T07:44:07;97140.06;;;10.77;61.07
36630;BME280;36256;42.154;23.002;2023-02-23T07:46:33;97127.44;;;11.03;60.96
36630;BME280;36256;42.154;23.002;2023-02-23T07:49:00;97135.69;;;11.47;59.78
36630;BME280;36256;42.154;23.002;2023-02-23T07:51:27;97139.75;;;11.46;59.03
36630;BME280;36256;42.154;23.002;2023-02-23T07:53:53;97131.44;;;11.73;58.79
36630;BME280;36256;42.154;23.002;2023-02-23T07:56:20;97123.31;;;11.75;57.44
36630;BME280;36256;42.154;23.002;2023-02-23T07:58:47;97122.38;;;11.69;57.84
36630;BME280;36256;42.154;23.002;2023-02-23T08:01:13;97125.75;;;11.55;58.43
36630;BME280;36256;42.154;23.002;2023-02-23T08:03:40;97125.81;;;11.91;57.17
36630;BME280;36256;42.154;23.002;2023-02-23T08:06:07;97118.19;;;12.28;56.53
36630;BME280;36256;42.154;23.002;2023-02-23T08:08:34;97111.47;;;12.43;56.08
36630;BME280;36256;42.154;23.002;2023-02-23T08:11:02;97107.69;;;12.65;54.91
36630;BME280;36256;42.154;23.002;2023-02-23T08:13:29;97104.78;;;12.92;54.19
36630;BME280;36256;42.154;23.002;2023-02-23T08:15:57;97103.50;;;13.11;53.33
36630;BME280;36256;42.154;23.002;2023-02-23T08:18:26;97092.84;;;13.15;54.35
36630;BME280;36256;42.154;23.002;2023-02-23T08:21:00;97080.78;;;12.63;55.27
36630;BME280;36256;42.154;23.002;2023-02-23T08:23:29;97100.69;;;12.93;54.53
36630;BME280;36256;42.154;23.002;2023-02-23T08:25:56;97097.09;;;13.43;52.75
36630;BME280;36256;42.154;23.002;2023-02-23T08:28:23;97092.03;;;13.94;51.18
36630;BME280;36256;42.154;23.002;2023-02-23T08:30:51;97081.28;;;14.07;51.41
36630;BME280;36256;42.154;23.002;2023-02-23T08:33:18;97083.34;;;14.45;50.45
36630;BME280;36256;42.154;23.002;2023-02-23T08:35:45;97072.13;;;15.09;48.54
36630;BME280;36256;42.154;23.002;2023-02-23T08:38:11;97072.94;;;15.79;46.78
36630;BME280;36256;42.154;23.002;2023-02-23T08:40:38;97061.38;;;16.23;45.96
36630;BME280;36256;42.154;23.002;2023-02-23T08:43:05;97065.16;;;16.40;46.16
36630;BME280;36256;42.154;23.002;2023-02-23T08:45:31;97104.97;;;17.02;44.27
36630;BME280;36256;42.154;23.002;2023-02-23T08:47:58;97107.31;;;18.14;42.73
36630;BME280;36256;42.154;23.002;2023-02-23T08:50:24;97099.56;;;18.85;41.04
36630;BME280;36256;42.154;23.002;2023-02-23T08:52:53;97098.06;;;19.50;39.59
36630;BME280;36256;42.154;23.002;2023-02-23T08:55:19;97094.34;;;20.05;38.64
36630;BME280;36256;42.154;23.002;2023-02-23T08:57:47;97138.50;;;20.45;37.39
36630;BME280;36256;42.154;23.002;2023-02-23T09:00:14;97140.06;;;20.46;37.14
36630;BME280;36256;42.154;23.002;2023-02-23T09:02:43;97138.78;;;20.93;36.66
36630;BME280;36256;42.154;23.002;2023-02-23T09:05:10;97143.44;;;21.07;35.91
36630;BME280;36256;42.154;23.002;2023-02-23T09:07:38;97144.00;;;20.94;36.37
36630;BME280;36256;42.154;23.002;2023-02-23T09:10:05;97139.91;;;21.60;35.03
36630;BME280;36256;42.154;23.002;2023-02-23T09:12:33;97140.25;;;21.16;35.38
36630;BME280;36256;42.154;23.002;2023-02-23T09:14:59;97135.34;;;21.46;35.08
36630;BME280;36256;42.154;23.002;2023-02-23T09:17:26;97134.28;;;22.33;34.54
36630;BME280;36256;42.154;23.002;2023-02-23T09:19:53;97142.97;;;22.70;33.41
36630;BME280;36256;42.154;23.002;2023-02-23T09:22:19;97134.84;;;22.50;33.67
36630;BME280;36256;42.154;23.002;2023-02-23T09:24:46;97136.66;;;22.29;33.43
36630;BME280;36256;42.154;23.002;2023-02-23T09:27:13;97127.81;;;23.12;32.71
36630;BME280;36256;42.154;23.002;2023-02-23T09:29:40;97131.47;;;23.45;32.21
36630;BME280;36256;42.154;23.002;2023-02-23T09:32:08;97111.88;;;23.80;32.00
36630;BME280;36256;42.154;23.002;2023-02-23T09:34:35;97124.06;;;23.55;32.21
36630;BME280;36256;42.154;23.002;2023-02-23T09:37:03;97118.69;;;24.48;31.41
36630;BME280;36256;42.154;23.002;2023-02-23T09:39:31;97120.78;;;24.87;31.24
36630;BME280;36256;42.154;23.002;2023-02-23T09:42:24;97112.38;;;23.66;31.87
36630;BME280;36256;42.154;23.002;2023-02-23T09:50:02;97098.44;;;20.15;36.90
36630;BME280;36256;42.154;23.002;2023-02-23T09:52:39;97093.41;;;19.64;37.11
36630;BME280;36256;42.154;23.002;2023-02-23T09:55:10;97090.81;;;19.16;39.66
36630;BME280;36256;42.154;23.002;2023-02-23T09:57:40;97092.31;;;18.78;38.68
36630;BME280;36256;42.154;23.002;2023-02-23T10:00:38;97094.16;;;18.17;38.93
36630;BME280;36256;42.154;23.002;2023-02-23T10:03:29;97090.97;;;17.92;41.40
36630;BME280;36256;42.154;23.002;2023-02-23T10:06:00;97081.19;;;17.57;40.75
36630;BME280;36256;42.154;23.002;2023-02-23T10:11:30;97075.59;;;17.37;41.99
36630;BME280;36256;42.154;23.002;2023-02-23T10:22:56;97056.81;;;17.45;40.77
36630;BME280;36256;42.154;23.002;2023-02-23T10:25:30;97053.94;;;17.34;41.18
36630;BME280;36256;42.154;23.002;2023-02-23T10:28:00;97051.38;;;17.36;41.47
36630;BME280;36256;42.154;23.002;2023-02-23T10:30:31;97051.69;;;17.49;40.82
36630;BME280;36256;42.154;23.002;2023-02-23T10:33:21;97042.81;;;17.67;40.77
36630;BME280;36256;42.154;23.002;2023-02-23T10:35:54;97037.88;;;17.62;40.48
36630;BME280;36256;42.154;23.002;2023-02-23T10:38:38;97037.13;;;17.61;41.18
36630;BME280;36256;42.154;23.002;2023-02-23T10:41:04;97029.09;;;17.60;40.57
36630;BME280;36256;42.154;23.002;2023-02-23T10:43:32;97027.59;;;17.70;40.32
36630;BME280;36256;42.154;23.002;2023-02-23T10:45:59;97024.03;;;17.75;40.78
36630;BME280;36256;42.154;23.002;2023-02-23T10:48:29;97008.78;;;17.67;39.62
36630;BME280;36256;42.154;23.002;2023-02-23T10:50:57;97014.78;;;17.38;39.73
36630;BME280;36256;42.154;23.002;2023-02-23T10:53:33;97009.47;;;17.51;41.09
36630;BME280;36256;42.154;23.002;2023-02-23T10:56:16;97003.16;;;17.78;39.47
36630;BME280;36256;42.154;23.002;2023-02-23T11:01:10;96994.91;;;17.85;39.69
36630;BME280;36256;42.154;23.002;2023-02-23T11:03:44;96995.44;;;17.89;41.23
36630;BME280;36256;42.154;23.002;2023-02-23T11:06:31;96988.75;;;17.92;39.33
36630;BME280;36256;42.154;23.002;2023-02-23T11:09:15;96983.88;;;18.04;39.99
36630;BME280;36256;42.154;23.002;2023-02-23T11:11:57;96970.47;;;18.10;39.15
36630;BME280;36256;42.154;23.002;2023-02-23T11:14:26;96968.16;;;18.09;41.44
36630;BME280;36256;42.154;23.002;2023-02-23T11:16:58;96972.31;;;18.08;39.66
36630;BME280;36256;42.154;23.002;2023-02-23T11:19:30;96945.97;;;18.07;41.16
36630;BME280;36256;42.154;23.002;2023-02-23T11:21:58;96956.06;;;18.19;38.23
36630;BME280;36256;42.154;23.002;2023-02-23T11:24:26;96947.78;;;18.21;39.00
36630;BME280;36256;42.154;23.002;2023-02-23T11:27:00;96950.66;;;18.32;40.53
36630;BME280;36256;42.154;23.002;2023-02-23T11:29:40;96941.63;;;18.39;38.49
36630;BME280;36256;42.154;23.002;2023-02-23T11:32:21;96934.94;;;18.53;38.33
36630;BME280;36256;42.154;23.002;2023-02-23T11:37:41;96929.00;;;18.57;38.01
36630;BME280;36256;42.154;23.002;2023-02-23T11:40:30;96936.25;;;18.86;37.98
36630;BME280;36256;42.154;23.002;2023-02-23T11:43:07;96935.94;;;18.95;37.48
36630;BME280;36256;42.154;23.002;2023-02-23T11:45:54;96927.41;;;19.17;37.23
36630;BME280;36256;42.154;23.002;2023-02-23T11:48:29;96915.25;;;19.22;36.64
36630;BME280;36256;42.154;23.002;2023-02-23T11:50:57;96913.19;;;19.17;36.66
36630;BME280;36256;42.154;23.002;2023-02-23T11:53:34;96915.97;;;19.33;36.97
36630;BME280;36256;42.154;23.002;2023-02-23T11:56:03;96909.25;;;19.31;36.24
36630;BME280;36256;42.154;23.002;2023-02-23T11:58:43;96908.53;;;19.14;36.16
36630;BME280;36256;42.154;23.002;2023-02-23T12:01:17;96904.63;;;19.22;35.85
36630;BME280;36256;42.154;23.002;2023-02-23T12:03:55;96901.28;;;19.24;36.89
36630;BME280;36256;42.154;23.002;2023-02-23T12:06:34;96898.66;;;19.37;35.63
36630;BME280;36256;42.154;23.002;2023-02-23T12:09:27;96894.41;;;19.60;36.34
36630;BME280;36256;42.154;23.002;2023-02-23T12:12:08;96893.88;;;19.67;36.80
36630;BME280;36256;42.154;23.002;2023-02-23T12:14:43;96898.00;;;19.72;35.60
36630;BME280;36256;42.154;23.002;2023-02-23T12:17:22;96889.06;;;19.45;35.74
36630;BME280;36256;42.154;23.002;2023-02-23T12:20:09;96882.13;;;19.30;36.63
36630;BME280;36256;42.154;23.002;2023-02-23T12:22:42;96875.38;;;19.33;36.86
36630;BME280;36256;42.154;23.002;2023-02-23T12:25:26;96875.91;;;19.37;35.90
36630;BME280;36256;42.154;23.002;2023-02-23T12:28:08;96878.44;;;19.46;36.86
36630;BME280;36256;42.154;23.002;2023-02-23T12:33:23;96874.84;;;19.40;36.37
36630;BME280;36256;42.154;23.002;2023-02-23T12:35:59;96870.41;;;19.50;36.30
36630;BME280;36256;42.154;23.002;2023-02-23T12:38:50;96867.56;;;19.55;36.17
36630;BME280;36256;42.154;23.002;2023-02-23T12:41:37;96849.94;;;19.57;35.51
36630;BME280;36256;42.154;23.002;2023-02-23T12:47:15;96863.13;;;19.60;35.42
36630;BME280;36256;42.154;23.002;2023-02-23T12:49:51;96859.88;;;19.34;35.35
36630;BME280;36256;42.154;23.002;2023-02-23T12:52:30;96858.78;;;19.48;35.80
36630;BME280;36256;42.154;23.002;2023-02-23T12:54:58;96849.97;;;19.51;35.36
36630;BME280;36256;42.154;23.002;2023-02-23T13:15:22;96838.63;;;19.46;35.25
36630;BME280;36256;42.154;23.002;2023-02-23T13:17:39;96838.13;;;19.42;36.62
36630;BME280;36256;42.154;23.002;2023-02-23T13:20:17;96832.88;;;19.57;35.61
36630;BME280;36256;42.154;23.002;2023-02-23T13:27:55;96838.53;;;19.63;34.86
36630;BME280;36256;42.154;23.002;2023-02-23T13:30:23;96827.97;;;19.58;34.61
36630;BME280;36256;42.154;23.002;2023-02-23T13:32:49;96835.91;;;19.70;35.66
36630;BME280;36256;42.154;23.002;2023-02-23T13:35:18;96831.22;;;19.73;34.42
36630;BME280;36256;42.154;23.002;2023-02-23T13:38:00;96811.03;;;19.71;34.33
36630;BME280;36256;42.154;23.002;2023-02-23T13:40:51;96825.44;;;19.89;34.16
36630;BME280;36256;42.154;23.002;2023-02-23T13:43:44;96826.72;;;19.88;34.89
36630;BME280;36256;42.154;23.002;2023-02-23T13:46:39;96818.78;;;19.76;35.38
36630;BME280;36256;42.154;23.002;2023-02-23T13:49:31;96824.53;;;19.70;35.53
36630;BME280;36256;42.154;23.002;2023-02-23T13:52:22;96820.72;;;19.56;35.49
36630;BME280;36256;42.154;23.002;2023-02-23T13:54:57;96820.19;;;19.58;35.83
36630;BME280;36256;42.154;23.002;2023-02-23T13:57:31;96822.28;;;19.58;35.58
36630;BME280;36256;42.154;23.002;2023-02-23T13:59:58;96826.19;;;19.49;35.22
36630;BME280;36256;42.154;23.002;2023-02-23T14:02:31;96825.19;;;19.41;35.67
36630;BME280;36256;42.154;23.002;2023-02-23T14:07:37;96820.06;;;19.23;35.47
36630;BME280;36256;42.154;23.002;2023-02-23T14:10:08;96827.81;;;19.28;35.50
36630;BME280;36256;42.154;23.002;2023-02-23T14:12:41;96809.22;;;19.16;35.55
36630;BME280;36256;42.154;23.002;2023-02-23T14:17:55;96826.09;;;19.03;35.61
36630;BME280;36256;42.154;23.002;2023-02-23T14:20:41;96829.75;;;18.92;35.87
36630;BME280;36256;42.154;23.002;2023-02-23T14:28:38;96822.56;;;18.69;36.34
36630;BME280;36256;42.154;23.002;2023-02-23T14:38:50;96827.72;;;18.76;37.54
36630;BME280;36256;42.154;23.002;2023-02-23T14:47:07;96825.94;;;18.51;38.30
36630;BME280;36256;42.154;23.002;2023-02-23T14:49:35;96826.72;;;18.46;38.36
36630;BME280;36256;42.154;23.002;2023-02-23T14:52:07;96822.06;;;18.43;38.15
36630;BME280;36256;42.154;23.002;2023-02-23T14:54:37;96826.97;;;18.26;38.76
36630;BME280;36256;42.154;23.002;2023-02-23T14:57:14;96830.84;;;18.17;39.34
36630;BME280;36256;42.154;23.002;2023-02-23T14:59:44;96824.16;;;18.03;40.13
36630;BME280;36256;42.154;23.002;2023-02-23T15:02:20;96830.56;;;17.87;40.79
36630;BME280;36256;42.154;23.002;2023-02-23T15:04:47;96825.94;;;17.90;40.74
36630;BME280;36256;42.154;23.002;2023-02-23T15:09:45;96833.91;;;17.75;41.14
36630;BME280;36256;42.154;23.002;2023-02-23T15:12:19;96837.50;;;17.64;41.41
36630;BME280;36256;42.154;23.002;2023-02-23T15:14:48;96841.84;;;17.60;41.40
36630;BME280;36256;42.154;23.002;2023-02-23T15:17:20;96848.50;;;17.46;41.85
36630;BME280;36256;42.154;23.002;2023-02-23T15:19:53;96847.44;;;17.38;42.12
36630;BME280;36256;42.154;23.002;2023-02-23T15:22:38;96846.91;;;17.34;42.23
36630;BME280;36256;42.154;23.002;2023-02-23T15:27:42;96847.13;;;17.19;43.02
36630;BME280;36256;42.154;23.002;2023-02-23T15:30:28;96858.09;;;17.00;43.86
36630;BME280;36256;42.154;23.002;2023-02-23T15:33:19;96871.09;;;16.76;44.46
36630;BME280;36256;42.154;23.002;2023-02-23T15:36:06;96847.34;;;16.68;44.88
36630;BME280;36256;42.154;23.002;2023-02-23T15:38:48;96868.53;;;16.78;45.19
36630;BME280;36256;42.154;23.002;2023-02-23T15:41:25;96866.94;;;16.71;45.29